createdAt,value
2022-12-18T00:01:32.131Z,14.13
2022-12-18T00:04:06.786Z,14.50
2022-12-18T00:06:36.625Z,14.47
2022-12-18T00:09:05.478Z,16.20
2022-12-18T00:11:33.364Z,15.63
2022-12-18T00:14:02.058Z,15.53
2022-12-18T00:16:31.010Z,14.03
2022-12-18T00:19:01.489Z,14.50
2022-12-18T00:21:30.452Z,15.40
2022-12-18T00:23:58.638Z,15.20
2022-12-18T00:26:28.321Z,13.93
2022-12-18T00:28:57.638Z,12.70
2022-12-18T00:31:27.016Z,14.30
2022-12-18T00:33:56.519Z,11.43
2022-12-18T00:36:28.031Z,13.83
2022-12-18T00:38:57.000Z,12.77
2022-12-18T00:41:39.836Z,11.57
2022-12-18T00:44:09.435Z,14.03
2022-12-18T00:46:37.325Z,12.23
2022-12-18T00:49:05.321Z,12.43
2022-12-18T00:51:34.540Z,15.00
2022-12-18T00:54:02.361Z,15.73
2022-12-18T00:56:30.217Z,15.23
2022-12-18T00:58:58.055Z,14.60
2022-12-18T01:01:26.075Z,14.70
2022-12-18T01:03:54.023Z,12.87
2022-12-18T01:06:21.898Z,12.67
2022-12-18T01:08:51.068Z,13.97
2022-12-18T01:11:21.257Z,14.43
2022-12-18T01:13:49.480Z,14.73
2022-12-18T01:16:18.800Z,14.30
2022-12-18T01:18:47.091Z,14.13
2022-12-18T01:21:17.930Z,13.50
2022-12-18T01:23:45.797Z,13.27
2022-12-18T01:26:16.495Z,13.50
2022-12-18T01:28:45.720Z,15.40
2022-12-18T01:31:15.930Z,14.40
2022-12-18T01:33:43.911Z,13.90
2022-12-18T01:36:17.664Z,15.10
2022-12-18T01:38:45.607Z,13.70
2022-12-18T01:41:16.225Z,15.40
2022-12-18T01:43:50.487Z,13.40
2022-12-18T01:46:20.167Z,11.20
2022-12-18T01:48:50.142Z,12.97
2022-12-18T01:51:18.992Z,12.47
2022-12-18T01:53:48.213Z,11.40
2022-12-18T01:56:20.342Z,12.93
2022-12-18T01:58:55.281Z,11.30
2022-12-18T02:01:25.453Z,11.80
2022-12-18T02:03:54.219Z,9.77
2022-12-18T02:06:28.845Z,10.93
2022-12-18T02:09:09.817Z,9.83
2022-12-18T02:11:51.395Z,10.50
2022-12-18T02:14:30.224Z,11.30
2022-12-18T02:17:04.927Z,9.17
2022-12-18T02:19:45.387Z,10.83
2022-12-18T02:22:28.352Z,10.40
2022-12-18T02:25:06.842Z,9.47
2022-12-18T02:27:39.010Z,8.23
2022-12-18T02:30:08.949Z,8.87
2022-12-18T02:32:41.642Z,8.93
2022-12-18T02:35:13.219Z,9.40
2022-12-18T02:37:42.535Z,8.93
2022-12-18T02:40:12.610Z,9.20
2022-12-18T02:42:41.756Z,9.30
2022-12-18T02:45:10.293Z,9.27
2022-12-18T02:47:42.481Z,9.70
2022-12-18T02:50:18.862Z,9.83
2022-12-18T02:52:54.894Z,9.73
2022-12-18T02:55:33.655Z,10.07
2022-12-18T02:58:07.609Z,10.67
2022-12-18T03:00:39.698Z,9.20
2022-12-18T03:03:12.309Z,9.37
2022-12-18T03:05:45.261Z,10.03
2022-12-18T03:08:17.587Z,9.70
2022-12-18T03:10:51.900Z,9.03
2022-12-18T03:13:25.560Z,10.40
2022-12-18T03:15:57.054Z,10.33
2022-12-18T03:18:28.573Z,13.43
2022-12-18T03:21:00.410Z,13.10
2022-12-18T03:23:32.564Z,10.60
2022-12-18T03:26:07.637Z,10.70
2022-12-18T03:28:41.569Z,11.20
2022-12-18T03:31:13.322Z,10.90
2022-12-18T03:33:46.316Z,8.33
2022-12-18T03:36:14.266Z,11.07
2022-12-18T03:38:42.142Z,10.40
2022-12-18T03:41:18.280Z,9.90
2022-12-18T03:43:54.089Z,11.00
2022-12-18T03:46:29.100Z,10.33
2022-12-18T03:49:04.242Z,10.27
2022-12-18T03:51:42.755Z,10.33
2022-12-18T03:54:11.942Z,12.23
2022-12-18T03:56:44.041Z,10.83
2022-12-18T03:59:14.963Z,8.90
2022-12-18T04:01:48.236Z,8.13
2022-12-18T04:04:18.291Z,9.63
2022-12-18T04:06:48.651Z,8.77
2022-12-18T04:09:16.810Z,10.13
2022-12-18T04:11:45.363Z,8.03
2022-12-18T04:14:17.930Z,8.47
2022-12-18T04:16:46.442Z,8.80
2022-12-18T04:19:14.473Z,8.60
2022-12-18T04:21:42.319Z,8.13
2022-12-18T04:24:10.371Z,8.63
2022-12-18T04:26:39.271Z,7.63
2022-12-18T04:29:07.103Z,10.23
2022-12-18T04:31:36.428Z,9.70
2022-12-18T04:34:04.451Z,8.23
2022-12-18T04:36:32.282Z,8.20
2022-12-18T04:39:00.462Z,7.47
2022-12-18T04:41:28.302Z,8.17
2022-12-18T04:43:56.107Z,8.17
2022-12-18T04:46:23.986Z,10.70
2022-12-18T04:48:53.182Z,6.80
2022-12-18T04:51:26.152Z,8.80
2022-12-18T04:53:54.412Z,8.37
2022-12-18T04:56:22.522Z,8.80
2022-12-18T04:58:50.726Z,7.37
2022-12-18T05:01:20.354Z,10.20
2022-12-18T05:03:48.493Z,11.00
2022-12-18T05:06:17.716Z,10.20
2022-12-18T05:08:45.571Z,9.80
2022-12-18T05:11:16.554Z,6.33
2022-12-18T05:13:45.301Z,8.67
2022-12-18T05:16:14.355Z,7.83
2022-12-18T05:18:42.684Z,6.93
2022-12-18T05:21:10.615Z,7.60
2022-12-18T05:23:40.197Z,6.30
2022-12-18T05:26:08.953Z,5.27
2022-12-18T05:28:38.135Z,8.73
2022-12-18T05:31:06.912Z,9.23
2022-12-18T05:33:36.438Z,8.03
2022-12-18T05:36:06.183Z,7.73
2022-12-18T05:38:35.990Z,7.80
2022-12-18T05:41:05.998Z,9.43
2022-12-18T05:43:35.542Z,8.87
2022-12-18T05:46:06.777Z,8.40
2022-12-18T05:48:35.157Z,7.77
2022-12-18T05:51:07.951Z,8.30
2022-12-18T05:53:36.850Z,6.50
2022-12-18T05:56:08.489Z,6.87
2022-12-18T05:58:36.404Z,7.73
2022-12-18T06:01:09.971Z,7.73
2022-12-18T06:03:37.908Z,8.93
2022-12-18T06:06:06.226Z,10.07
2022-12-18T06:08:34.013Z,10.10
2022-12-18T06:11:01.858Z,9.77
2022-12-18T06:13:31.019Z,7.30
2022-12-18T06:15:58.841Z,9.00
2022-12-18T06:18:26.717Z,11.63
2022-12-18T06:20:58.132Z,9.43
2022-12-18T06:23:26.272Z,12.63
2022-12-18T06:25:54.712Z,10.80
2022-12-18T06:28:22.973Z,12.07
2022-12-18T06:30:52.109Z,26.70
2022-12-18T06:33:20.003Z,20.23
2022-12-18T06:35:47.825Z,73.13
2022-12-18T06:38:15.790Z,173.53
2022-12-18T06:40:43.542Z,37.77
2022-12-18T06:43:11.318Z,22.10
2022-12-18T06:45:39.186Z,20.20
2022-12-18T06:48:08.496Z,15.50
2022-12-18T06:50:37.898Z,10.87
2022-12-18T06:53:05.661Z,11.03
2022-12-18T06:55:35.255Z,11.13
2022-12-18T06:58:05.315Z,10.40
2022-12-18T07:00:33.086Z,8.90
2022-12-18T07:03:00.937Z,17.87
2022-12-18T07:05:30.164Z,14.33
2022-12-18T07:07:58.134Z,13.07
2022-12-18T07:10:26.248Z,19.60
2022-12-18T07:12:54.183Z,23.60
2022-12-18T07:15:21.985Z,24.40
2022-12-18T07:17:49.786Z,23.07
2022-12-18T07:20:17.804Z,19.20
2022-12-18T07:22:49.734Z,15.77
2022-12-18T07:25:19.837Z,12.77
2022-12-18T07:27:47.657Z,20.27
2022-12-18T07:30:15.598Z,18.33
2022-12-18T07:32:44.499Z,11.37
2022-12-18T07:35:12.281Z,21.50
2022-12-18T07:37:40.075Z,12.57
2022-12-18T07:40:11.097Z,16.60
2022-12-18T07:42:39.013Z,10.93
2022-12-18T07:45:07.861Z,10.87
2022-12-18T07:47:37.644Z,10.90
2022-12-18T07:50:06.837Z,11.53
2022-12-18T07:52:34.705Z,32.43
2022-12-18T07:55:02.517Z,20.00
2022-12-18T07:57:50.043Z,16.43
2022-12-18T08:00:19.226Z,17.50
2022-12-18T08:02:47.250Z,27.90
2022-12-18T08:05:16.779Z,21.93
2022-12-18T08:07:44.622Z,17.97
2022-12-18T08:10:12.419Z,11.07
2022-12-18T08:12:41.557Z,12.27
2022-12-18T08:15:10.013Z,11.80
2022-12-18T08:17:37.819Z,10.90
2022-12-18T08:20:06.270Z,11.50
2022-12-18T08:22:36.277Z,12.17
2022-12-18T08:25:04.655Z,11.47
2022-12-18T08:27:33.210Z,9.80
2022-12-18T08:30:03.954Z,10.27
2022-12-18T08:32:33.752Z,10.87
2022-12-18T08:35:01.652Z,12.47
2022-12-18T08:37:29.522Z,10.73
2022-12-18T08:39:57.311Z,11.63
2022-12-18T08:42:42.679Z,10.20
2022-12-18T08:45:12.573Z,10.53
2022-12-18T08:47:40.353Z,10.40
2022-12-18T08:50:08.778Z,9.50
2022-12-18T08:52:36.579Z,9.80
2022-12-18T08:55:04.554Z,21.77
2022-12-18T08:57:32.428Z,22.37
2022-12-18T09:00:00.277Z,20.00
2022-12-18T09:02:29.489Z,29.57
2022-12-18T09:04:57.902Z,26.27
2022-12-18T09:07:25.942Z,20.60
2022-12-18T09:09:53.740Z,18.87
2022-12-18T09:12:21.546Z,20.40
2022-12-18T09:14:49.327Z,20.50
2022-12-18T09:17:17.264Z,20.67
2022-12-18T09:19:46.462Z,21.27
2022-12-18T09:22:14.270Z,26.33
2022-12-18T09:24:42.051Z,30.90
2022-12-18T09:27:09.958Z,33.43
2022-12-18T09:29:37.888Z,32.37
2022-12-18T09:32:06.350Z,31.23
2022-12-18T09:34:34.454Z,33.77
2022-12-18T09:37:03.645Z,29.27
2022-12-18T09:39:31.527Z,22.60
2022-12-18T09:42:00.568Z,20.47
2022-12-18T09:44:31.743Z,26.67
2022-12-18T09:47:10.412Z,22.03
2022-12-18T09:49:44.026Z,18.80
2022-12-18T09:52:17.939Z,18.77
2022-12-18T09:54:50.649Z,16.83
2022-12-18T09:57:22.183Z,16.87
2022-12-18T09:59:55.090Z,17.77
2022-12-18T10:02:25.570Z,18.27
2022-12-18T10:05:03.934Z,18.00
2022-12-18T10:07:41.942Z,17.60
2022-12-18T10:10:19.391Z,20.13
2022-12-18T10:13:04.117Z,21.30
2022-12-18T10:15:38.276Z,21.10
2022-12-18T10:18:22.274Z,18.87
2022-12-18T10:20:53.744Z,19.40
2022-12-18T10:23:28.441Z,19.60
2022-12-18T10:26:02.428Z,21.80
2022-12-18T10:28:32.614Z,27.93
2022-12-18T10:31:01.329Z,22.13
2022-12-18T10:33:32.802Z,19.87
2022-12-18T10:36:01.184Z,20.63
2022-12-18T10:38:31.759Z,21.93
2022-12-18T10:41:01.164Z,20.80
2022-12-18T10:43:31.107Z,19.23
2022-12-18T10:46:15.434Z,19.80
2022-12-18T10:48:52.416Z,19.03
2022-12-18T10:51:25.853Z,19.07
2022-12-18T10:53:58.070Z,22.10
2022-12-18T10:56:29.052Z,21.30
2022-12-18T10:59:03.344Z,20.50
2022-12-18T11:01:48.436Z,20.93
2022-12-18T11:04:20.834Z,21.93
2022-12-18T11:06:57.509Z,21.80
2022-12-18T11:09:28.162Z,23.57
2022-12-18T11:11:57.450Z,25.57
2022-12-18T11:14:27.795Z,22.17
2022-12-18T11:17:24.407Z,22.13
2022-12-18T11:19:45.300Z,19.03
2022-12-18T11:22:23.037Z,16.20
2022-12-18T11:25:30.037Z,15.97
2022-12-18T11:27:50.959Z,19.03
2022-12-18T11:30:24.611Z,17.13
2022-12-18T11:32:54.289Z,15.80
2022-12-18T11:35:27.011Z,16.80
2022-12-18T11:37:59.784Z,17.73
2022-12-18T11:40:40.729Z,16.60
2022-12-18T11:43:12.813Z,17.33
2022-12-18T11:45:47.766Z,16.60
2022-12-18T11:48:20.137Z,17.87
2022-12-18T11:50:52.990Z,19.00
2022-12-18T11:53:21.907Z,18.33
2022-12-18T11:56:06.064Z,17.10
2022-12-18T11:58:49.653Z,16.67
2022-12-18T12:01:36.507Z,17.00
2022-12-18T12:04:40.227Z,14.60
2022-12-18T12:07:22.078Z,14.63
2022-12-18T12:09:57.075Z,13.80
2022-12-18T12:12:48.772Z,11.70
2022-12-18T12:15:29.087Z,13.70
2022-12-18T12:18:08.185Z,14.03
2022-12-18T12:20:49.549Z,14.90
2022-12-18T12:23:27.869Z,15.17
2022-12-18T12:26:03.074Z,13.47
2022-12-18T12:28:54.040Z,17.07
2022-12-18T12:31:34.487Z,14.57
2022-12-18T12:34:10.550Z,15.63
2022-12-18T12:36:48.703Z,14.10
2022-12-18T12:39:22.546Z,14.93
2022-12-18T12:42:07.937Z,13.33
2022-12-18T12:44:44.213Z,13.30
2022-12-18T12:47:18.382Z,14.97
2022-12-18T12:49:48.780Z,16.63
2022-12-18T12:52:27.296Z,15.97
2022-12-18T12:54:56.002Z,14.73
2022-12-18T12:57:26.775Z,15.47
2022-12-18T13:00:02.719Z,14.67
2022-12-18T13:02:35.535Z,14.60
2022-12-18T13:05:13.941Z,15.50
2022-12-18T13:07:48.399Z,13.93
2022-12-18T13:10:28.651Z,15.13
2022-12-18T13:12:56.997Z,14.40
2022-12-18T13:15:31.281Z,14.77
2022-12-18T13:18:22.267Z,15.60
2022-12-18T13:20:56.480Z,16.13
2022-12-18T13:23:35.956Z,15.17
2022-12-18T13:26:33.012Z,14.47
2022-12-18T13:29:07.198Z,15.10
2022-12-18T13:32:02.411Z,14.93
2022-12-18T13:34:32.760Z,15.97
2022-12-18T13:37:34.528Z,16.13
2022-12-18T13:40:02.438Z,13.87
2022-12-18T13:43:00.731Z,14.63
2022-12-18T13:45:47.547Z,14.43
2022-12-18T13:48:28.021Z,14.80
2022-12-18T13:51:00.659Z,14.57
2022-12-18T13:53:32.453Z,15.07
2022-12-18T13:56:00.807Z,12.60
2022-12-18T13:58:28.747Z,13.03
2022-12-18T14:00:57.688Z,14.90
2022-12-18T14:03:28.686Z,14.93
2022-12-18T14:06:01.813Z,14.07
2022-12-18T14:08:35.932Z,14.57
2022-12-18T14:11:07.702Z,16.73
2022-12-18T14:13:39.382Z,16.27
2022-12-18T14:16:09.823Z,13.60
2022-12-18T14:18:46.872Z,15.20
2022-12-18T14:21:22.716Z,15.60
2022-12-18T14:23:50.692Z,15.70
2022-12-18T14:26:29.239Z,16.47
2022-12-18T14:28:57.411Z,16.20
2022-12-18T14:31:26.904Z,20.57
2022-12-18T14:33:56.916Z,22.80
2022-12-18T14:36:26.384Z,20.97
2022-12-18T14:38:55.623Z,20.67
2022-12-18T14:41:24.732Z,20.13
2022-12-18T14:43:54.805Z,21.17
2022-12-18T14:46:34.631Z,20.63
2022-12-18T14:49:06.249Z,23.63
2022-12-18T14:51:36.076Z,24.20
2022-12-18T14:54:08.847Z,22.57
2022-12-18T14:56:38.561Z,21.47
2022-12-18T14:59:08.546Z,25.63
2022-12-18T15:01:39.180Z,23.23
2022-12-18T15:04:27.490Z,20.23
2022-12-18T15:07:11.641Z,17.83
2022-12-18T15:09:40.328Z,17.63
2022-12-18T15:12:26.769Z,16.97
2022-12-18T15:14:54.594Z,13.87
2022-12-18T15:17:24.779Z,12.60
2022-12-18T15:20:02.112Z,13.53
2022-12-18T15:22:31.636Z,13.23
2022-12-18T15:25:00.775Z,16.07
2022-12-18T15:27:32.348Z,20.87
2022-12-18T15:30:28.647Z,26.87
2022-12-18T15:33:25.665Z,25.53
2022-12-18T15:36:00.094Z,25.33
2022-12-18T15:38:28.346Z,24.07
2022-12-18T15:40:56.813Z,22.23
2022-12-18T15:43:38.717Z,19.80
2022-12-18T15:46:08.597Z,16.90
2022-12-18T15:48:40.864Z,16.97
2022-12-18T15:51:16.737Z,14.40
2022-12-18T15:53:45.397Z,12.33
2022-12-18T15:56:31.716Z,13.40
2022-12-18T15:59:00.004Z,13.70
2022-12-18T16:01:30.829Z,23.93
2022-12-18T16:03:59.393Z,22.40
2022-12-18T16:06:36.515Z,17.60
2022-12-18T16:09:17.221Z,15.93
2022-12-18T16:11:48.392Z,16.97
2022-12-18T16:14:21.204Z,23.23
2022-12-18T16:16:51.061Z,20.93
2022-12-18T16:19:19.456Z,19.03
2022-12-18T16:21:51.018Z,18.90
2022-12-18T16:24:22.740Z,19.40
2022-12-18T16:26:52.313Z,16.97
2022-12-18T16:29:25.472Z,15.70
2022-12-18T16:31:53.987Z,14.40
2022-12-18T16:34:24.947Z,14.90
2022-12-18T16:37:01.692Z,15.53
2022-12-18T16:39:34.122Z,19.97
2022-12-18T16:42:03.369Z,18.20
2022-12-18T16:44:34.283Z,16.97
2022-12-18T16:47:03.168Z,16.57
2022-12-18T16:49:31.625Z,17.10
2022-12-18T16:52:00.793Z,18.27
2022-12-18T16:54:30.384Z,21.40
2022-12-18T16:56:58.542Z,20.93
2022-12-18T16:59:27.286Z,20.57
2022-12-18T17:01:57.411Z,21.03
2022-12-18T17:04:25.447Z,20.40
2022-12-18T17:06:53.846Z,19.00
2022-12-18T17:09:25.857Z,19.50
2022-12-18T17:11:53.793Z,17.30
2022-12-18T17:14:23.936Z,16.27
2022-12-18T17:17:19.196Z,17.60
2022-12-18T17:19:40.160Z,18.40
2022-12-18T17:22:08.160Z,18.87
2022-12-18T17:24:37.451Z,17.73
2022-12-18T17:27:05.518Z,18.00
2022-12-18T17:29:33.338Z,20.17
2022-12-18T17:32:01.187Z,19.87
2022-12-18T17:34:30.692Z,18.40
2022-12-18T17:36:58.988Z,18.80
2022-12-18T17:39:28.639Z,18.13
2022-12-18T17:41:57.885Z,21.00
2022-12-18T17:44:25.777Z,18.53
2022-12-18T17:46:53.741Z,24.03
2022-12-18T17:49:21.628Z,20.00
2022-12-18T17:51:49.662Z,28.37
2022-12-18T17:54:17.467Z,30.87
2022-12-18T17:56:46.134Z,33.03
2022-12-18T17:59:16.002Z,29.80
2022-12-18T18:01:45.189Z,28.17
2022-12-18T18:04:16.499Z,24.77
2022-12-18T18:06:44.409Z,23.67
2022-12-18T18:09:16.290Z,24.10
2022-12-18T18:12:03.009Z,23.13
2022-12-18T18:14:32.984Z,21.93
2022-12-18T18:17:04.885Z,20.97
2022-12-18T18:19:34.159Z,20.47
2022-12-18T18:22:03.127Z,18.57
2022-12-18T18:24:31.914Z,19.67
2022-12-18T18:27:00.512Z,18.67
2022-12-18T18:29:30.258Z,19.43
2022-12-18T18:32:00.160Z,19.37
2022-12-18T18:34:30.614Z,20.90
2022-12-18T18:36:58.471Z,19.87
2022-12-18T18:39:26.765Z,20.10
2022-12-18T18:41:54.905Z,18.43
2022-12-18T18:44:25.752Z,21.17
2022-12-18T18:46:56.060Z,21.97
2022-12-18T18:49:27.461Z,20.00
2022-12-18T18:51:56.218Z,20.27
2022-12-18T18:54:24.348Z,19.53
2022-12-18T18:59:40.132Z,44.37
2022-12-18T19:02:08.195Z,38.20
2022-12-18T19:04:40.902Z,28.13
2022-12-18T19:07:15.513Z,27.47
2022-12-18T19:09:58.000Z,24.97
2022-12-18T19:12:49.007Z,28.83
2022-12-18T19:15:16.979Z,32.20
2022-12-18T19:17:44.846Z,27.13
2022-12-18T19:20:16.715Z,29.20
2022-12-18T19:22:47.956Z,29.60
2022-12-18T19:25:29.958Z,30.90
2022-12-18T19:28:08.265Z,26.93
2022-12-18T19:30:48.975Z,24.80
2022-12-18T19:33:41.594Z,29.63
2022-12-18T19:36:14.085Z,42.20
2022-12-18T19:38:43.050Z,34.17
2022-12-18T19:41:13.976Z,27.90
2022-12-18T19:43:42.987Z,24.57
2022-12-18T19:46:13.139Z,22.73
2022-12-18T19:48:41.881Z,20.33
2022-12-18T19:51:15.582Z,21.80
2022-12-18T19:53:43.591Z,22.70
2022-12-18T19:56:13.355Z,26.43
2022-12-18T19:58:42.748Z,23.43
2022-12-18T20:01:10.853Z,21.20
2022-12-18T20:03:41.485Z,18.77
2022-12-18T20:06:13.070Z,18.37
2022-12-18T20:08:41.318Z,18.33
2022-12-18T20:11:09.608Z,22.10
2022-12-18T20:13:37.632Z,28.70
2022-12-18T20:16:06.161Z,26.63
2022-12-18T20:18:34.002Z,23.03
2022-12-18T20:21:02.133Z,23.77
2022-12-18T20:23:33.208Z,21.67
2022-12-18T20:26:02.682Z,21.30
2022-12-18T20:28:32.452Z,19.53
2022-12-18T20:31:01.246Z,21.13
2022-12-18T20:33:29.682Z,19.17
2022-12-18T20:36:03.276Z,17.90
2022-12-18T20:38:33.619Z,17.63
2022-12-18T20:41:03.418Z,27.03
2022-12-18T20:43:31.247Z,37.87
2022-12-18T20:46:03.230Z,30.10
2022-12-18T20:48:31.726Z,31.77
2022-12-18T20:51:00.276Z,27.63
2022-12-18T20:53:33.257Z,22.60
2022-12-18T20:56:02.164Z,18.97
2022-12-18T20:58:30.107Z,18.70
2022-12-18T21:01:05.669Z,16.00
2022-12-18T21:03:33.684Z,17.83
2022-12-18T21:06:01.573Z,19.03
2022-12-18T21:08:29.400Z,17.20
2022-12-18T21:11:32.321Z,15.37
2022-12-18T21:14:01.207Z,17.70
2022-12-18T21:16:29.225Z,16.53
2022-12-18T21:18:57.060Z,18.63
2022-12-18T21:21:26.850Z,16.17
2022-12-18T21:23:55.078Z,18.53
2022-12-18T21:26:26.105Z,18.53
2022-12-18T21:28:55.973Z,19.90
2022-12-18T21:31:24.381Z,18.43
2022-12-18T21:33:52.656Z,27.73
2022-12-18T21:36:24.531Z,24.80
2022-12-18T21:38:53.757Z,19.50
2022-12-18T21:41:42.359Z,20.10
2022-12-18T21:44:14.266Z,26.53
2022-12-18T21:46:44.365Z,21.73
2022-12-18T21:49:14.370Z,21.20
2022-12-18T21:51:42.500Z,19.43
2022-12-18T21:54:10.359Z,21.07
2022-12-18T21:56:47.450Z,19.93
2022-12-18T21:59:16.745Z,21.67
2022-12-18T22:01:44.905Z,21.17
2022-12-18T22:04:13.594Z,21.07
2022-12-18T22:06:42.593Z,21.37
2022-12-18T22:09:11.720Z,23.90
2022-12-18T22:11:39.584Z,24.33
2022-12-18T22:14:09.118Z,22.73
2022-12-18T22:16:36.996Z,19.97
2022-12-18T22:19:06.681Z,18.50
2022-12-18T22:21:36.160Z,17.53
2022-12-18T22:24:06.458Z,17.53
2022-12-18T22:26:39.771Z,15.70
2022-12-18T22:29:29.676Z,17.23
2022-12-18T22:31:59.377Z,15.67
2022-12-18T22:34:27.332Z,16.83
2022-12-18T22:36:55.480Z,20.93
2022-12-18T22:39:25.484Z,21.73
2022-12-18T22:41:53.964Z,17.03
2022-12-18T22:44:26.600Z,18.47
2022-12-18T22:47:06.265Z,17.70
2022-12-18T22:49:35.673Z,15.67
2022-12-18T22:52:04.467Z,16.20
2022-12-18T22:54:32.350Z,16.50
2022-12-18T22:57:00.236Z,16.20
2022-12-18T22:59:29.381Z,19.20
2022-12-18T23:01:59.041Z,16.23
2022-12-18T23:04:30.170Z,15.10
2022-12-18T23:07:04.551Z,15.83
2022-12-18T23:09:32.503Z,16.43
2022-12-18T23:12:00.366Z,14.83
2022-12-18T23:14:29.731Z,15.23
2022-12-18T23:16:57.616Z,14.13
2022-12-18T23:19:25.995Z,15.23
2022-12-18T23:21:54.531Z,14.37
2022-12-18T23:24:24.629Z,13.87
2022-12-18T23:26:52.556Z,14.07
2022-12-18T23:29:20.519Z,14.37
2022-12-18T23:31:49.726Z,14.60
2022-12-18T23:34:17.960Z,14.53
2022-12-18T23:36:46.964Z,14.50
2022-12-18T23:39:29.111Z,13.93
2022-12-18T23:42:00.502Z,14.27
2022-12-18T23:44:28.932Z,14.63
2022-12-18T23:46:58.233Z,13.07
2022-12-18T23:49:26.172Z,11.23
2022-12-18T23:51:55.098Z,12.43
2022-12-18T23:54:30.880Z,15.67
2022-12-18T23:57:01.515Z,12.40
2022-12-18T23:59:29.399Z,12.67
